Latest Weather Observations for Kuitpo

IDS60801

Issued at 5:01 pm CST Saturday 29 August 2015 (issued every 30 minutes, with the page automatically refreshed every 10 minutes)

About weather observations | Map of weather stations | Latest weather observations for SA | Other Formats
Station Details ID: 023887 Name: KUITPO FOREST RESERVE Lat: -35.17 Lon: 138.68 Height: 365.0 m
Data from the previous 72 hours. | See also: Recent months at Kuitpo
Date/Time
CST
Temp
°C
App
Temp
°C
Dew
Point
Rel
Hum
%
Delta-T
°C
Wind Press
QNH
hPa
Press
MSL
hPa
Rain
since 9 am
mm
Dir
 
Spd
km/h
Gust
km/h
Spd
kts
Gust
kts
29/05:00pm 8.1 3.5 3.8 74 1.9 ESE 17 24 9 13 1025.0 1025.2 0.0
29/04:30pm 8.8 4.6 4.0 72 2.1 ESE 15 24 8 13 1024.7 1025.0 0.0
29/04:00pm 9.4 5.2 4.0 69 2.4 ESE 15 20 8 11 1024.6 1024.9 0.0
29/03:30pm 10.3 6.2 4.2 66 2.8 E 15 26 8 14 1024.7 1025.0 0.0
29/03:00pm 10.0 5.5 4.2 67 2.6 E 17 20 9 11 1025.0 1025.2 0.0
29/02:30pm 10.3 6.1 3.8 64 2.9 ESE 15 22 8 12 1025.3 1025.5 0.0
29/02:00pm 9.2 4.1 3.0 65 2.7 ESE 19 26 10 14 1025.4 1025.6 0.0
29/01:30pm 9.7 4.6 3.0 63 2.9 ESE 19 28 10 15 1025.4 1025.6 0.0
29/01:00pm 9.8 5.1 3.1 63 3.0 E 17 22 9 12 1025.7 1025.9 0.0
29/12:30pm 9.6 4.9 3.1 64 2.8 E 17 24 9 13 1026.3 1026.6 0.0
29/12:00pm 9.7 4.8 4.3 69 2.4 E 19 30 10 16 1026.7 1027.0 0.0
29/11:30am 10.2 6.5 6.5 78 1.8 ESE 15 22 8 12 1027.1 1027.4 0.0
29/11:00am 8.7 4.5 5.8 82 1.3 E 17 26 9 14 1027.2 1027.5 0.0
29/10:30am 7.5 3.3 5.6 88 0.9 E 17 24 9 13 1027.2 1027.5 0.0
29/10:00am 6.3 1.6 5.9 97 0.2 ESE 20 28 11 15 1027.3 1027.6 0.0
29/09:30am 5.8 1.0 5.7 99 0.0 ESE 20 28 11 15 1027.1 1027.4 0.0
29/09:00am 5.7 1.5 5.6 99 0.0 ESE 17 24 9 13 1027.1 1027.4 0.4
29/08:30am 5.6 1.0 5.5 99 0.0 ESE 19 26 10 14 1027.0 1027.3 0.4
29/08:00am 5.6 0.4 5.5 99 0.0 ESE 22 35 12 19 1026.7 1027.0 0.4
29/07:30am 6.0 1.5 5.9 99 0.0 ESE 19 28 10 15 1026.3 1026.6 0.4
29/07:00am 6.4 2.7 6.3 99 0.0 SE 15 24 8 13 1026.1 1026.4 0.4
29/06:30am 6.4 2.7 6.3 99 0.0 SE 15 24 8 13 1025.8 1026.0 0.2
29/06:00am 6.3 3.7 6.0 98 0.1 SE 9 13 5 7 1025.6 1025.8 0.2
29/05:30am 6.1 2.7 5.8 98 0.1 SSE 13 19 7 10 1025.5 1025.7 0.2
29/05:00am 6.2 2.8 5.9 98 0.1 SE 13 17 7 9 1025.4 1025.6 0.0
29/04:30am 6.4 3.8 6.1 98 0.1 SE 9 15 5 8 1025.4 1025.6 0.0
29/04:00am 6.4 3.4 6.1 98 0.1 ESE 11 13 6 7 1025.4 1025.6 0.0
29/03:30am 6.6 4.0 6.3 98 0.1 SE 9 13 5 7 1025.6 1025.8 0.0
29/03:00am 6.4 3.8 6.1 98 0.1 SE 9 11 5 6 1025.9 1026.2 0.0
29/02:30am 6.0 3.3 5.6 97 0.2 SE 9 13 5 7 1026.1 1026.4 0.0
29/02:00am 6.1 3.4 5.7 97 0.2 SE 9 13 5 7 1026.3 1026.6 0.0
29/01:30am 6.4 3.7 5.8 96 0.3 SE 9 11 5 6 1026.4 1026.7 0.0
29/01:00am 6.8 4.2 6.1 95 0.3 SE 9 13 5 7 1026.8 1027.1 0.0
29/12:30am 6.9 4.3 6.0 94 0.4 SE 9 11 5 6 1026.7 1027.0 0.0
29/12:00am 6.8 4.5 5.7 93 0.5 ESE 7 11 4 6 1026.6 1026.9 0.0
 
Date/Time
CST
Temp
°C
App
Temp
°C
Dew
Point
Rel
Hum
%
Delta-T
°C
Wind Press
QNH
hPa
Press
MSL
hPa
Rain
since 9 am
mm
Dir
 
Spd
km/h
Gust
km/h
Spd
kts
Gust
kts
28/11:30pm 6.4 5.3 5.2 92 0.5 CALM 0 0 0 0 1026.7 1027.0 0.0
28/11:00pm 6.5 4.3 5.3 92 0.5 E 6 9 3 5 1026.8 1027.1 0.0
28/10:30pm 6.4 3.9 4.9 90 0.7 ESE 7 9 4 5 1026.9 1027.2 0.0
28/10:00pm 6.4 3.5 4.6 88 0.8 SE 9 11 5 6 1026.9 1027.2 0.0
28/09:30pm 6.5 3.6 4.5 87 0.9 SE 9 13 5 7 1027.0 1027.3 0.0
28/09:00pm 6.5 3.5 4.0 84 1.1 ESE 9 13 5 7 1026.9 1027.2 0.0
28/08:30pm 6.7 3.3 4.2 84 1.1 ESE 11 13 6 7 1026.8 1027.1 0.0
28/08:00pm 6.9 3.6 4.4 84 1.1 ESE 11 13 6 7 1026.5 1026.8 0.0
28/07:30pm 7.3 4.0 4.3 81 1.3 ESE 11 15 6 8 1026.5 1026.8 0.0
28/07:00pm 7.6 4.3 4.4 80 1.4 ESE 11 17 6 9 1026.3 1026.6 0.0
28/06:30pm 7.8 4.9 4.4 79 1.5 SE 9 13 5 7 1026.2 1026.5 0.0
28/06:00pm 8.1 5.6 4.5 78 1.6 SE 7 9 4 5 1026.1 1026.4 0.0
28/05:30pm 8.5 5.1 4.1 74 1.9 ESE 11 17 6 9 1025.9 1026.2 0.0
28/05:00pm 8.6 4.7 3.6 71 2.2 SSE 13 20 7 11 1025.9 1026.2 0.0
28/04:30pm 8.8 5.0 4.0 72 2.1 SSE 13 24 7 13 1025.8 1026.0 0.0
28/04:00pm 9.2 5.5 4.2 71 2.2 SSE 13 20 7 11 1025.8 1026.0 0.0
28/03:30pm 9.4 6.2 5.2 75 1.9 SSE 11 17 6 9 1025.9 1026.2 0.0
28/03:00pm 9.9 6.1 5.9 76 1.9 SSE 15 24 8 13 1025.9 1026.2 0.0
28/02:30pm 10.2 7.2 6.2 76 1.9 SSE 11 22 6 12 1026.0 1026.3 0.0
28/02:00pm 9.9 6.5 6.1 77 1.8 SSE 13 22 7 12 1026.2 1026.5 0.0
28/01:30pm 9.0 5.9 7.1 88 0.9 SE 13 19 7 10 1026.4 1026.7 0.0
28/01:00pm 8.5 5.2 6.5 87 0.9 SSE 13 20 7 11 1026.8 1027.1 0.0
28/12:30pm 8.8 5.6 6.8 87 0.9 SSE 13 24 7 13 1027.1 1027.4 0.0
28/12:00pm 9.6 6.9 5.4 75 1.9 SE 9 13 5 7 1027.4 1027.7 0.0
28/11:30am 9.9 7.3 6.1 77 1.8 SE 9 17 5 9 1027.8 1028.0 0.0
28/11:00am 9.2 6.2 5.8 79 1.6 ESE 11 17 6 9 1028.0 1028.2 0.0
28/10:30am 8.7 5.0 6.2 84 1.2 ESE 15 20 8 11 1028.3 1028.6 0.0
28/10:00am 9.4 5.3 6.3 81 1.5 SE 17 22 9 12 1028.1 1028.3 0.0
28/09:30am 9.4 6.0 7.8 90 0.8 SE 15 26 8 14 1028.1 1028.3 0.0
28/09:00am 8.6 5.3 8.2 97 0.2 SE 15 20 8 11 1028.0 1028.2 2.6
28/08:30am 7.8 4.4 7.7 99 0.0 SE 15 26 8 14 1027.8 1028.0 2.6
28/08:00am 7.4 3.5 7.3 99 0.0 SSE 17 26 9 14 1027.6 1027.9 2.6
28/07:30am 6.9 2.9 6.8 99 0.0 SE 17 22 9 12 1027.4 1027.7 2.6
28/07:00am 6.9 3.7 6.8 99 0.0 SSE 13 19 7 10 1027.1 1027.4 2.6
28/06:30am 7.0 3.1 6.9 99 0.0 SE 17 24 9 13 1026.8 1027.1 2.6
28/06:00am 7.0 4.2 6.9 99 0.0 SE 11 15 6 8 1026.9 1027.2 2.4
28/05:30am 7.0 4.6 6.9 99 0.0 SSE 9 13 5 7 1026.7 1027.0 2.4
28/05:00am 7.1 4.3 7.0 99 0.0 SSE 11 19 6 10 1026.5 1026.8 2.2
28/04:30am 7.4 5.1 7.3 99 0.0 SSE 9 17 5 9 1026.3 1026.6 2.2
28/04:00am 7.6 4.6 7.5 99 0.0 SE 13 19 7 10 1026.2 1026.5 2.2
28/03:30am 7.7 5.1 7.6 99 0.0 SE 11 15 6 8 1026.0 1026.3 1.8
28/03:00am 7.7 5.4 7.4 98 0.1 SSE 9 13 5 7 1026.1 1026.4 1.2
28/02:30am 7.7 5.0 7.4 98 0.1 SE 11 20 6 11 1026.2 1026.5 0.8
28/02:00am 7.6 4.1 7.3 98 0.1 SE 15 22 8 12 1026.1 1026.4 0.6
28/01:30am 7.7 4.2 7.4 98 0.1 ESE 15 20 8 11 1026.3 1026.6 0.6
28/01:00am 7.7 4.6 7.3 97 0.2 SE 13 24 7 13 1026.2 1026.5 0.4
28/12:30am 7.5 4.7 7.1 97 0.2 SE 11 20 6 11 1026.1 1026.4 0.4
28/12:00am 7.0 4.5 6.4 96 0.3 SSE 9 15 5 8 1026.3 1026.6 0.4
 
Date/Time
CST
Temp
°C
App
Temp
°C
Dew
Point
Rel
Hum
%
Delta-T
°C
Wind Press
QNH
hPa
Press
MSL
hPa
Rain
since 9 am
mm
Dir
 
Spd
km/h
Gust
km/h
Spd
kts
Gust
kts
27/11:30pm 6.7 4.1 6.1 96 0.3 SSE 9 13 5 7 1026.3 1026.6 0.4
27/11:00pm 6.2 3.5 5.6 96 0.3 S 9 13 5 7 1026.5 1026.8 0.4
27/10:30pm 6.4 4.1 5.8 96 0.3 S 7 11 4 6 1026.7 1027.0 0.4
27/10:00pm 6.7 4.1 6.0 95 0.3 SSE 9 13 5 7 1026.6 1026.9 0.4
27/09:30pm 6.9 4.3 6.0 94 0.4 S 9 11 5 6 1026.7 1027.0 0.4
27/09:00pm 7.2 5.0 6.1 93 0.5 S 7 11 4 6 1026.6 1026.9 0.4
27/08:30pm 7.3 5.1 6.2 93 0.5 S 7 15 4 8 1026.6 1026.9 0.4
27/08:00pm 7.2 4.6 6.1 93 0.5 SSW 9 13 5 7 1026.4 1026.7 0.4
27/07:30pm 7.4 4.1 6.2 92 0.6 S 13 17 7 9 1026.1 1026.4 0.4
27/07:00pm 7.0 4.2 5.3 89 0.8 SSW 9 11 5 6 1025.9 1026.2 0.4
27/06:30pm 7.4 4.7 5.5 88 0.9 SSW 9 15 5 8 1025.6 1025.8 0.4
27/06:00pm 8.3 5.3 5.9 85 1.1 S 11 17 6 9 1025.2 1025.4 0.4
27/05:30pm 8.6 4.7 5.4 80 1.5 S 15 24 8 13 1024.9 1025.1 0.4
27/05:00pm 9.4 5.6 5.8 78 1.7 S 15 24 8 13 1024.4 1024.7 0.4
27/04:30pm 9.6 5.5 6.3 80 1.6 S 17 28 9 15 1024.2 1024.5 0.4
27/04:00pm 9.9 6.2 6.2 78 1.8 SSW 15 22 8 12 1024.2 1024.5 0.4
27/03:30pm 10.3 7.0 6.6 78 1.8 S 13 20 7 11 1023.8 1024.1 0.4
27/03:00pm 9.8 7.1 7.2 84 1.3 S 11 24 6 13 1023.8 1024.1 0.4
27/02:30pm 9.3 5.3 6.7 84 1.2 S 17 28 9 15 1023.7 1024.0 0.4
27/02:00pm 9.0 5.2 7.5 90 0.7 S 17 30 9 16 1023.8 1024.1 0.4
27/01:30pm 10.7 7.6 7.4 80 1.6 SSW 13 28 7 15 1023.7 1024.0 0.2
27/01:00pm 9.8 7.3 8.1 89 0.8 SSW 11 20 6 11 1024.0 1024.3 0.2
27/12:30pm 11.2 8.4 7.1 76 2.0 SW 11 20 6 11 1024.0 1024.3 0.2
27/12:00pm 9.1 6.0 7.1 87 1.0 WSW 13 24 7 13 1024.3 1024.6 0.2
27/11:30am 10.3 7.0 8.2 87 1.0 WSW 15 24 8 13 1024.3 1024.6 0.0
27/11:00am 9.6 7.6 7.2 85 1.2 SW 7 13 4 7 1024.4 1024.7 0.0
27/10:30am 9.3 6.6 7.3 87 1.0 SW 11 17 6 9 1024.4 1024.7 0.0
27/10:00am 8.8 6.0 6.9 88 0.9 WSW 11 15 6 8 1024.4 1024.7 0.0
27/09:30am 8.6 5.9 7.2 91 0.7 WSW 11 17 6 9 1024.2 1024.5 0.0
27/09:00am 8.1 5.8 7.3 95 0.4 SW 9 13 5 7 1024.0 1024.3 3.6
27/08:30am 7.2 4.8 6.9 98 0.1 SSW 9 13 5 7 1024.0 1024.3 3.6
27/08:00am 6.9 4.4 6.6 98 0.1 SW 9 13 5 7 1023.8 1024.1 3.4
27/07:30am 6.4 3.8 6.1 98 0.1 WSW 9 15 5 8 1023.4 1023.6 3.4
27/07:00am 5.9 3.2 5.6 98 0.1 WSW 9 13 5 7 1023.0 1023.2 3.4
27/06:30am 5.9 3.2 5.6 98 0.1 WSW 9 11 5 6 1022.6 1022.8 3.4
27/06:00am 6.2 3.6 5.9 98 0.1 WSW 9 11 5 6 1022.4 1022.6 3.4
27/05:30am 5.9 2.8 5.6 98 0.1 WSW 11 13 6 7 1022.0 1022.2 3.2
27/05:00am 6.1 3.4 5.7 97 0.2 WSW 9 15 5 8 1021.7 1022.0 3.2
27/04:30am 6.1 3.4 5.7 97 0.2 WSW 9 13 5 7 1021.6 1021.9 3.2
27/04:00am 6.0 3.3 5.6 97 0.2 WSW 9 15 5 8 1021.5 1021.8 3.2
27/03:30am 6.1 3.4 5.5 96 0.3 WNW 9 13 5 7 1021.5 1021.8 3.2
27/03:00am 6.3 4.0 5.7 96 0.3 WNW 7 9 4 5 1021.5 1021.8 3.2
27/02:30am 6.0 3.2 5.3 95 0.3 WNW 9 13 5 7 1021.6 1021.9 3.2
27/02:00am 5.8 3.3 4.9 94 0.4 W 7 11 4 6 1021.8 1022.1 3.2
27/01:30am 5.8 3.6 5.1 95 0.3 WSW 6 7 3 4 1021.8 1022.1 3.2
27/01:00am 5.8 3.4 5.1 95 0.3 WSW 7 9 4 5 1022.2 1022.4 3.2
27/12:30am 5.8 3.3 4.9 94 0.4 WSW 7 9 4 5 1022.2 1022.4 3.2
27/12:00am 6.0 3.5 5.0 93 0.4 WSW 7 9 4 5 1022.4 1022.6 3.2
 
Date/Time
CST
Temp
°C
App
Temp
°C
Dew
Point
Rel
Hum
%
Delta-T
°C
Wind Press
QNH
hPa
Press
MSL
hPa
Rain
since 9 am
mm
Dir
 
Spd
km/h
Gust
km/h
Spd
kts
Gust
kts
26/11:30pm 6.3 3.9 5.1 92 0.5 W 7 9 4 5 1022.6 1022.8 3.2
26/11:00pm 6.5 4.1 5.3 92 0.5 WNW 7 11 4 6 1022.8 1023.0 3.2
26/10:30pm 6.7 4.3 5.3 91 0.6 NW 7 9 4 5 1022.9 1023.1 3.2
26/10:00pm 7.0 4.9 5.6 91 0.6 WNW 6 9 3 5 1023.0 1023.2 3.2
26/09:30pm 6.8 4.4 5.1 89 0.8 W 7 9 4 5 1023.2 1023.4 3.2
26/09:00pm 6.9 4.1 5.1 88 0.8 W 9 13 5 7 1023.0 1023.2 3.2
26/08:30pm 7.2 4.3 4.9 85 1.0 WNW 9 11 5 6 1023.0 1023.2 3.2
26/08:00pm 7.4 4.5 4.7 83 1.2 WNW 9 11 5 6 1022.8 1023.0 3.2
26/07:30pm 7.2 4.7 4.5 83 1.2 W 7 9 4 5 1022.6 1022.8 3.2
26/07:00pm 7.3 4.7 4.3 81 1.3 S 7 7 4 4 1022.6 1022.8 3.2
26/06:30pm 7.6 6.0 4.4 80 1.4 SSE 2 7 1 4 1022.3 1022.5 3.2
26/06:00pm 7.8 6.6 4.7 81 1.4 CALM 0 0 0 0 1022.1 1022.3 3.2
26/05:30pm 7.9 5.8 5.7 86 1.0 SE 6 9 3 5 1021.8 1022.1 3.2

Other Formats:

Comma delimited format used in spreadsheet applications
http://www.bom.gov.au/fwo/IDS60801/IDS60801.94683.axf

JavaScript Object Notation format (JSON) in row-major order
http://www.bom.gov.au/fwo/IDS60801/IDS60801.94683.json